sensor_id;sensor_type;location;lat;lon;timestamp;temperature;humidity
20528;DHT22;23612;50.894;10.700;2022-12-29T00:01:22;7.50;99.90
20528;DHT22;23612;50.894;10.700;2022-12-29T00:03:48;7.50;99.90
20528;DHT22;23612;50.894;10.700;2022-12-29T00:06:13;7.50;99.90
20528;DHT22;23612;50.894;10.700;2022-12-29T00:08:39;7.50;99.90
20528;DHT22;23612;50.894;10.700;2022-12-29T00:11:09;7.50;99.90
20528;DHT22;23612;50.894;10.700;2022-12-29T00:13:35;7.50;99.90
20528;DHT22;23612;50.894;10.700;2022-12-29T00:16:19;7.50;99.90
20528;DHT22;23612;50.894;10.700;2022-12-29T00:18:45;7.50;99.90
20528;DHT22;23612;50.894;10.700;2022-12-29T00:21:16;7.50;99.90
20528;DHT22;23612;50.894;10.700;2022-12-29T00:24:01;7.50;99.90
20528;DHT22;23612;50.894;10.700;2022-12-29T00:26:47;7.50;99.90
20528;DHT22;23612;50.894;10.700;2022-12-29T00:29:31;7.60;99.90
20528;DHT22;23612;50.894;10.700;2022-12-29T00:32:15;7.60;99.90
20528;DHT22;23612;50.894;10.700;2022-12-29T00:34:59;7.60;99.90
20528;DHT22;23612;50.894;10.700;2022-12-29T00:37:37;7.60;99.90
20528;DHT22;23612;50.894;10.700;2022-12-29T00:40:21;7.60;99.90
20528;DHT22;23612;50.894;10.700;2022-12-29T00:43:05;7.60;99.90
20528;DHT22;23612;50.894;10.700;2022-12-29T00:45:49;7.60;99.90
20528;DHT22;23612;50.894;10.700;2022-12-29T00:48:15;7.60;99.90
20528;DHT22;23612;50.894;10.700;2022-12-29T00:50:40;7.60;99.90
20528;DHT22;23612;50.894;10.700;2022-12-29T00:53:05;7.60;99.90
20528;DHT22;23612;50.894;10.700;2022-12-29T00:55:31;7.70;99.90
20528;DHT22;23612;50.894;10.700;2022-12-29T00:57:57;7.70;99.90
20528;DHT22;23612;50.894;10.700;2022-12-29T01:00:22;7.80;99.90
20528;DHT22;23612;50.894;10.700;2022-12-29T01:02:48;7.80;99.90
20528;DHT22;23612;50.894;10.700;2022-12-29T01:05:13;7.80;99.90
20528;DHT22;23612;50.894;10.700;2022-12-29T01:07:38;7.70;99.90
20528;DHT22;23612;50.894;10.700;2022-12-29T01:10:04;7.70;99.90
20528;DHT22;23612;50.894;10.700;2022-12-29T01:12:36;7.60;99.90
20528;DHT22;23612;50.894;10.700;2022-12-29T01:15:10;7.60;99.90
20528;DHT22;23612;50.894;10.700;2022-12-29T01:17:36;7.60;99.90
20528;DHT22;23612;50.894;10.700;2022-12-29T01:20:03;7.60;99.90
20528;DHT22;23612;50.894;10.700;2022-12-29T01:22:28;7.60;99.90
20528;DHT22;23612;50.894;10.700;2022-12-29T01:24:54;7.60;99.90
20528;DHT22;23612;50.894;10.700;2022-12-29T01:27:19;7.70;99.90
20528;DHT22;23612;50.894;10.700;2022-12-29T01:29:45;7.70;99.90
20528;DHT22;23612;50.894;10.700;2022-12-29T01:32:10;7.60;99.90
20528;DHT22;23612;50.894;10.700;2022-12-29T01:34:36;7.70;99.90
20528;DHT22;23612;50.894;10.700;2022-12-29T01:37:01;7.80;99.90
20528;DHT22;23612;50.894;10.700;2022-12-29T01:39:27;7.90;99.90
20528;DHT22;23612;50.894;10.700;2022-12-29T01:41:52;8.00;99.90
20528;DHT22;23612;50.894;10.700;2022-12-29T01:44:47;8.00;99.90
20528;DHT22;23612;50.894;10.700;2022-12-29T01:47:17;8.00;99.90
20528;DHT22;23612;50.894;10.700;2022-12-29T01:49:44;8.00;99.90
20528;DHT22;23612;50.894;10.700;2022-12-29T01:52:09;8.10;99.90
20528;DHT22;23612;50.894;10.700;2022-12-29T01:54:48;8.10;99.90
20528;DHT22;23612;50.894;10.700;2022-12-29T01:57:18;8.10;99.90
20528;DHT22;23612;50.894;10.700;2022-12-29T02:00:06;8.10;99.90
20528;DHT22;23612;50.894;10.700;2022-12-29T02:02:34;8.00;99.90
20528;DHT22;23612;50.894;10.700;2022-12-29T02:05:05;7.90;99.90
20528;DHT22;23612;50.894;10.700;2022-12-29T02:07:32;7.80;99.90
20528;DHT22;23612;50.894;10.700;2022-12-29T02:09:58;7.80;99.90
20528;DHT22;23612;50.894;10.700;2022-12-29T02:12:25;7.70;99.90
20528;DHT22;23612;50.894;10.700;2022-12-29T02:14:55;7.60;99.90
20528;DHT22;23612;50.894;10.700;2022-12-29T02:28:45;7.30;99.90
20528;DHT22;23612;50.894;10.700;2022-12-29T02:31:31;7.40;99.90
20528;DHT22;23612;50.894;10.700;2022-12-29T02:34:52;7.40;99.90
20528;DHT22;23612;50.894;10.700;2022-12-29T02:37:27;7.50;99.90
20528;DHT22;23612;50.894;10.700;2022-12-29T02:42:46;7.50;99.90
20528;DHT22;23612;50.894;10.700;2022-12-29T02:45:31;7.60;99.90
20528;DHT22;23612;50.894;10.700;2022-12-29T02:48:04;7.60;99.90
20528;DHT22;23612;50.894;10.700;2022-12-29T02:50:36;7.60;99.90
20528;DHT22;23612;50.894;10.700;2022-12-29T02:53:12;7.70;99.90
20528;DHT22;23612;50.894;10.700;2022-12-29T02:55:38;7.70;99.90
20528;DHT22;23612;50.894;10.700;2022-12-29T02:58:21;7.80;99.90
20528;DHT22;23612;50.894;10.700;2022-12-29T03:04:03;7.90;99.90
20528;DHT22;23612;50.894;10.700;2022-12-29T03:06:46;7.90;99.90
20528;DHT22;23612;50.894;10.700;2022-12-29T03:12:00;8.00;99.90
20528;DHT22;23612;50.894;10.700;2022-12-29T03:20:21;8.10;99.90
20528;DHT22;23612;50.894;10.700;2022-12-29T03:22:51;8.10;99.90
20528;DHT22;23612;50.894;10.700;2022-12-29T03:25:23;8.10;99.90
20528;DHT22;23612;50.894;10.700;2022-12-29T03:27:54;8.10;99.90
20528;DHT22;23612;50.894;10.700;2022-12-29T03:30:21;8.20;99.90
20528;DHT22;23612;50.894;10.700;2022-12-29T03:32:51;8.20;99.90
20528;DHT22;23612;50.894;10.700;2022-12-29T03:35:22;8.20;99.90
20528;DHT22;23612;50.894;10.700;2022-12-29T03:37:59;8.20;99.90
20528;DHT22;23612;50.894;10.700;2022-12-29T03:40:31;8.20;99.90
20528;DHT22;23612;50.894;10.700;2022-12-29T03:42:58;8.10;99.90
20528;DHT22;23612;50.894;10.700;2022-12-29T03:45:24;8.30;99.90
20528;DHT22;23612;50.894;10.700;2022-12-29T03:47:50;8.30;99.90
20528;DHT22;23612;50.894;10.700;2022-12-29T03:50:15;8.30;99.90
20528;DHT22;23612;50.894;10.700;2022-12-29T03:52:41;8.30;99.90
20528;DHT22;23612;50.894;10.700;2022-12-29T03:55:07;8.30;99.90
20528;DHT22;23612;50.894;10.700;2022-12-29T03:57:32;8.30;99.90
20528;DHT22;23612;50.894;10.700;2022-12-29T03:59:58;8.30;99.90
20528;DHT22;23612;50.894;10.700;2022-12-29T04:02:23;8.30;99.90
20528;DHT22;23612;50.894;10.700;2022-12-29T04:04:49;8.30;99.90
20528;DHT22;23612;50.894;10.700;2022-12-29T04:07:14;8.40;99.90
20528;DHT22;23612;50.894;10.700;2022-12-29T04:09:40;8.40;99.90
20528;DHT22;23612;50.894;10.700;2022-12-29T04:12:05;8.40;99.90
20528;DHT22;23612;50.894;10.700;2022-12-29T04:14:31;8.40;99.90
20528;DHT22;23612;50.894;10.700;2022-12-29T04:16:56;8.40;99.90
20528;DHT22;23612;50.894;10.700;2022-12-29T04:19:22;8.40;99.90
20528;DHT22;23612;50.894;10.700;2022-12-29T04:21:47;8.40;99.90
20528;DHT22;23612;50.894;10.700;2022-12-29T04:24:13;8.50;99.90
20528;DHT22;23612;50.894;10.700;2022-12-29T04:26:39;8.50;99.90
20528;DHT22;23612;50.894;10.700;2022-12-29T04:29:04;8.50;99.90
20528;DHT22;23612;50.894;10.700;2022-12-29T04:31:30;8.50;99.90
20528;DHT22;23612;50.894;10.700;2022-12-29T04:33:55;8.40;99.90
20528;DHT22;23612;50.894;10.700;2022-12-29T04:36:22;8.50;99.90
20528;DHT22;23612;50.894;10.700;2022-12-29T04:38:48;8.50;99.90
20528;DHT22;23612;50.894;10.700;2022-12-29T04:41:13;8.50;99.90
20528;DHT22;23612;50.894;10.700;2022-12-29T04:43:39;8.50;99.90
20528;DHT22;23612;50.894;10.700;2022-12-29T04:46:05;8.50;99.90
20528;DHT22;23612;50.894;10.700;2022-12-29T04:48:30;8.50;99.90
20528;DHT22;23612;50.894;10.700;2022-12-29T04:50:56;8.60;99.90
20528;DHT22;23612;50.894;10.700;2022-12-29T04:53:21;8.60;99.90
20528;DHT22;23612;50.894;10.700;2022-12-29T04:55:51;8.60;99.90
20528;DHT22;23612;50.894;10.700;2022-12-29T04:58:18;8.60;99.90
20528;DHT22;23612;50.894;10.700;2022-12-29T05:00:44;8.60;99.90
20528;DHT22;23612;50.894;10.700;2022-12-29T05:03:09;8.60;99.90
20528;DHT22;23612;50.894;10.700;2022-12-29T05:05:35;8.60;99.90
20528;DHT22;23612;50.894;10.700;2022-12-29T05:08:00;8.60;99.90
20528;DHT22;23612;50.894;10.700;2022-12-29T05:10:26;8.70;99.90
20528;DHT22;23612;50.894;10.700;2022-12-29T05:12:51;8.70;99.90
20528;DHT22;23612;50.894;10.700;2022-12-29T05:15:17;8.70;99.90
20528;DHT22;23612;50.894;10.700;2022-12-29T05:17:43;8.70;99.90
20528;DHT22;23612;50.894;10.700;2022-12-29T05:20:08;8.70;99.90
20528;DHT22;23612;50.894;10.700;2022-12-29T05:22:34;8.70;99.90
20528;DHT22;23612;50.894;10.700;2022-12-29T05:24:59;8.70;99.90
20528;DHT22;23612;50.894;10.700;2022-12-29T05:27:25;8.80;99.90
20528;DHT22;23612;50.894;10.700;2022-12-29T05:29:50;8.90;99.90
20528;DHT22;23612;50.894;10.700;2022-12-29T05:32:16;9.10;99.90
20528;DHT22;23612;50.894;10.700;2022-12-29T05:34:41;9.10;99.90
20528;DHT22;23612;50.894;10.700;2022-12-29T05:37:07;9.10;99.90
20528;DHT22;23612;50.894;10.700;2022-12-29T05:39:32;9.10;99.90
20528;DHT22;23612;50.894;10.700;2022-12-29T05:41:58;9.20;99.90
20528;DHT22;23612;50.894;10.700;2022-12-29T05:44:23;9.30;99.90
20528;DHT22;23612;50.894;10.700;2022-12-29T05:46:49;9.30;99.90
20528;DHT22;23612;50.894;10.700;2022-12-29T05:49:16;9.40;99.90
20528;DHT22;23612;50.894;10.700;2022-12-29T05:51:41;9.40;99.90
20528;DHT22;23612;50.894;10.700;2022-12-29T05:54:07;9.30;99.90
20528;DHT22;23612;50.894;10.700;2022-12-29T05:56:32;9.30;99.90
20528;DHT22;23612;50.894;10.700;2022-12-29T05:58:58;9.20;99.90
20528;DHT22;23612;50.894;10.700;2022-12-29T06:01:23;9.10;99.90
20528;DHT22;23612;50.894;10.700;2022-12-29T06:03:48;9.10;99.90
20528;DHT22;23612;50.894;10.700;2022-12-29T06:06:14;9.00;99.90
20528;DHT22;23612;50.894;10.700;2022-12-29T06:08:40;8.90;99.90
20528;DHT22;23612;50.894;10.700;2022-12-29T06:11:05;9.00;99.90
20528;DHT22;23612;50.894;10.700;2022-12-29T06:13:31;9.00;99.90
20528;DHT22;23612;50.894;10.700;2022-12-29T06:15:57;9.00;99.90
20528;DHT22;23612;50.894;10.700;2022-12-29T06:18:22;9.00;99.90
20528;DHT22;23612;50.894;10.700;2022-12-29T06:20:48;9.00;99.90
20528;DHT22;23612;50.894;10.700;2022-12-29T06:23:13;9.10;99.90
20528;DHT22;23612;50.894;10.700;2022-12-29T06:25:39;9.10;99.90
20528;DHT22;23612;50.894;10.700;2022-12-29T06:28:05;9.20;99.90
20528;DHT22;23612;50.894;10.700;2022-12-29T06:30:31;9.20;99.90
20528;DHT22;23612;50.894;10.700;2022-12-29T06:32:58;9.30;99.90
20528;DHT22;23612;50.894;10.700;2022-12-29T06:35:23;9.30;99.90
20528;DHT22;23612;50.894;10.700;2022-12-29T06:37:49;9.40;99.90
20528;DHT22;23612;50.894;10.700;2022-12-29T06:40:14;9.40;99.90
20528;DHT22;23612;50.894;10.700;2022-12-29T06:42:43;9.40;99.90
20528;DHT22;23612;50.894;10.700;2022-12-29T06:45:09;9.50;99.90
20528;DHT22;23612;50.894;10.700;2022-12-29T06:47:35;9.50;99.90
20528;DHT22;23612;50.894;10.700;2022-12-29T06:50:01;9.50;99.90
20528;DHT22;23612;50.894;10.700;2022-12-29T06:52:27;9.50;99.90
20528;DHT22;23612;50.894;10.700;2022-12-29T06:54:54;9.50;99.90
20528;DHT22;23612;50.894;10.700;2022-12-29T06:57:19;9.40;99.90
20528;DHT22;23612;50.894;10.700;2022-12-29T06:59:45;9.40;99.90
20528;DHT22;23612;50.894;10.700;2022-12-29T07:02:11;9.50;99.90
20528;DHT22;23612;50.894;10.700;2022-12-29T07:04:36;9.50;99.90
20528;DHT22;23612;50.894;10.700;2022-12-29T07:07:02;9.50;99.90
20528;DHT22;23612;50.894;10.700;2022-12-29T07:09:27;9.60;99.90
20528;DHT22;23612;50.894;10.700;2022-12-29T07:11:53;9.60;99.90
20528;DHT22;23612;50.894;10.700;2022-12-29T07:14:18;9.60;99.90
20528;DHT22;23612;50.894;10.700;2022-12-29T07:16:44;9.60;99.90
20528;DHT22;23612;50.894;10.700;2022-12-29T07:19:09;9.60;99.90
20528;DHT22;23612;50.894;10.700;2022-12-29T07:21:35;9.70;99.90
20528;DHT22;23612;50.894;10.700;2022-12-29T07:24:00;9.70;99.90
20528;DHT22;23612;50.894;10.700;2022-12-29T07:26:26;9.70;99.90
20528;DHT22;23612;50.894;10.700;2022-12-29T07:28:52;9.70;99.90
20528;DHT22;23612;50.894;10.700;2022-12-29T07:31:19;9.70;99.90
20528;DHT22;23612;50.894;10.700;2022-12-29T07:33:46;9.70;99.90
20528;DHT22;23612;50.894;10.700;2022-12-29T07:36:12;9.70;99.90
20528;DHT22;23612;50.894;10.700;2022-12-29T07:38:38;9.80;99.90
20528;DHT22;23612;50.894;10.700;2022-12-29T07:41:04;9.80;99.90
20528;DHT22;23612;50.894;10.700;2022-12-29T07:43:29;9.80;99.90
20528;DHT22;23612;50.894;10.700;2022-12-29T07:45:55;9.70;99.90
20528;DHT22;23612;50.894;10.700;2022-12-29T07:48:21;9.80;99.90
20528;DHT22;23612;50.894;10.700;2022-12-29T07:50:46;9.80;99.90
20528;DHT22;23612;50.894;10.700;2022-12-29T07:53:11;9.80;99.90
20528;DHT22;23612;50.894;10.700;2022-12-29T07:55:37;9.80;99.90
20528;DHT22;23612;50.894;10.700;2022-12-29T07:58:02;9.80;99.90
20528;DHT22;23612;50.894;10.700;2022-12-29T08:00:28;9.80;99.90
20528;DHT22;23612;50.894;10.700;2022-12-29T08:02:54;9.80;99.90
20528;DHT22;23612;50.894;10.700;2022-12-29T08:05:20;9.80;99.90
20528;DHT22;23612;50.894;10.700;2022-12-29T08:07:46;9.80;99.90
20528;DHT22;23612;50.894;10.700;2022-12-29T08:10:13;9.80;99.90
20528;DHT22;23612;50.894;10.700;2022-12-29T08:12:39;9.80;99.90
20528;DHT22;23612;50.894;10.700;2022-12-29T08:15:06;9.90;99.90
20528;DHT22;23612;50.894;10.700;2022-12-29T08:17:32;9.90;99.90
20528;DHT22;23612;50.894;10.700;2022-12-29T08:19:58;9.90;99.90
20528;DHT22;23612;50.894;10.700;2022-12-29T08:22:23;10.00;99.90
20528;DHT22;23612;50.894;10.700;2022-12-29T08:24:49;10.10;99.90
20528;DHT22;23612;50.894;10.700;2022-12-29T08:27:15;10.20;99.90
20528;DHT22;23612;50.894;10.700;2022-12-29T08:29:40;10.20;99.90
20528;DHT22;23612;50.894;10.700;2022-12-29T08:32:06;10.30;99.90
20528;DHT22;23612;50.894;10.700;2022-12-29T08:34:32;10.30;99.90
20528;DHT22;23612;50.894;10.700;2022-12-29T08:36:58;10.30;99.90
20528;DHT22;23612;50.894;10.700;2022-12-29T08:39:23;10.30;99.90
20528;DHT22;23612;50.894;10.700;2022-12-29T08:41:49;10.30;99.90
20528;DHT22;23612;50.894;10.700;2022-12-29T08:44:14;10.30;99.90
20528;DHT22;23612;50.894;10.700;2022-12-29T08:46:40;10.40;99.90
20528;DHT22;23612;50.894;10.700;2022-12-29T08:49:05;10.30;99.90
20528;DHT22;23612;50.894;10.700;2022-12-29T08:51:31;10.20;99.90
20528;DHT22;23612;50.894;10.700;2022-12-29T08:53:56;10.10;99.90
20528;DHT22;23612;50.894;10.700;2022-12-29T08:56:22;10.10;99.90
20528;DHT22;23612;50.894;10.700;2022-12-29T08:58:49;10.10;99.90
20528;DHT22;23612;50.894;10.700;2022-12-29T09:01:15;10.10;99.90
20528;DHT22;23612;50.894;10.700;2022-12-29T09:03:40;10.10;99.90
20528;DHT22;23612;50.894;10.700;2022-12-29T09:06:06;10.10;99.90
20528;DHT22;23612;50.894;10.700;2022-12-29T09:08:32;10.10;99.90
20528;DHT22;23612;50.894;10.700;2022-12-29T09:11:09;10.10;99.90
20528;DHT22;23612;50.894;10.700;2022-12-29T09:13:36;10.10;99.90
20528;DHT22;23612;50.894;10.700;2022-12-29T09:16:01;10.10;99.90
20528;DHT22;23612;50.894;10.700;2022-12-29T09:18:27;10.10;99.90
20528;DHT22;23612;50.894;10.700;2022-12-29T09:21:00;10.00;99.90
20528;DHT22;23612;50.894;10.700;2022-12-29T09:23:26;10.10;99.90
20528;DHT22;23612;50.894;10.700;2022-12-29T09:25:52;10.00;99.90
20528;DHT22;23612;50.894;10.700;2022-12-29T09:28:18;9.90;99.90
20528;DHT22;23612;50.894;10.700;2022-12-29T09:30:44;9.90;99.90
20528;DHT22;23612;50.894;10.700;2022-12-29T09:33:09;9.90;99.90
20528;DHT22;23612;50.894;10.700;2022-12-29T09:35:35;9.90;99.90
20528;DHT22;23612;50.894;10.700;2022-12-29T09:38:00;9.90;99.90
20528;DHT22;23612;50.894;10.700;2022-12-29T09:40:31;10.00;99.90
20528;DHT22;23612;50.894;10.700;2022-12-29T09:43:07;10.00;99.90
20528;DHT22;23612;50.894;10.700;2022-12-29T09:45:44;10.00;99.90
20528;DHT22;23612;50.894;10.700;2022-12-29T09:48:22;10.10;99.90
20528;DHT22;23612;50.894;10.700;2022-12-29T09:50:52;10.10;99.90
20528;DHT22;23612;50.894;10.700;2022-12-29T09:53:25;10.10;99.90
20528;DHT22;23612;50.894;10.700;2022-12-29T09:55:55;10.10;99.90
20528;DHT22;23612;50.894;10.700;2022-12-29T10:01:28;10.20;99.90
20528;DHT22;23612;50.894;10.700;2022-12-29T10:03:57;10.20;99.90
20528;DHT22;23612;50.894;10.700;2022-12-29T10:06:29;10.20;99.90
20528;DHT22;23612;50.894;10.700;2022-12-29T10:09:32;10.30;99.90
20528;DHT22;23612;50.894;10.700;2022-12-29T10:12:16;10.30;99.90
20528;DHT22;23612;50.894;10.700;2022-12-29T10:15:28;10.30;99.90
20528;DHT22;23612;50.894;10.700;2022-12-29T10:23:26;10.20;99.90
20528;DHT22;23612;50.894;10.700;2022-12-29T10:25:55;10.10;99.90
20528;DHT22;23612;50.894;10.700;2022-12-29T10:28:24;10.10;99.90
20528;DHT22;23612;50.894;10.700;2022-12-29T10:30:53;10.10;99.90
20528;DHT22;23612;50.894;10.700;2022-12-29T10:33:22;10.10;99.90
20528;DHT22;23612;50.894;10.700;2022-12-29T10:35:50;10.10;99.90
20528;DHT22;23612;50.894;10.700;2022-12-29T10:38:37;10.10;99.90
20528;DHT22;23612;50.894;10.700;2022-12-29T10:41:21;10.00;99.90
20528;DHT22;23612;50.894;10.700;2022-12-29T10:43:54;10.00;99.90
20528;DHT22;23612;50.894;10.700;2022-12-29T10:46:27;9.90;99.90
20528;DHT22;23612;50.894;10.700;2022-12-29T10:48:53;9.70;99.90
20528;DHT22;23612;50.894;10.700;2022-12-29T10:51:25;9.70;99.90
20528;DHT22;23612;50.894;10.700;2022-12-29T10:53:59;9.70;99.90
20528;DHT22;23612;50.894;10.700;2022-12-29T10:56:34;9.80;99.90
20528;DHT22;23612;50.894;10.700;2022-12-29T10:59:21;9.80;99.90
20528;DHT22;23612;50.894;10.700;2022-12-29T11:04:31;9.90;99.90
20528;DHT22;23612;50.894;10.700;2022-12-29T11:06:59;10.00;99.90
20528;DHT22;23612;50.894;10.700;2022-12-29T11:09:28;10.10;99.90
20528;DHT22;23612;50.894;10.700;2022-12-29T11:11:55;10.10;99.90
20528;DHT22;23612;50.894;10.700;2022-12-29T11:14:27;10.10;99.90
20528;DHT22;23612;50.894;10.700;2022-12-29T11:17:02;10.20;99.90
20528;DHT22;23612;50.894;10.700;2022-12-29T11:19:32;10.30;99.90
20528;DHT22;23612;50.894;10.700;2022-12-29T11:22:21;10.30;99.90
20528;DHT22;23612;50.894;10.700;2022-12-29T11:24:49;10.40;99.90
20528;DHT22;23612;50.894;10.700;2022-12-29T11:27:18;10.50;99.90
20528;DHT22;23612;50.894;10.700;2022-12-29T11:29:45;10.40;99.90
20528;DHT22;23612;50.894;10.700;2022-12-29T11:32:20;10.30;99.90
20528;DHT22;23612;50.894;10.700;2022-12-29T11:34:46;10.20;99.90
20528;DHT22;23612;50.894;10.700;2022-12-29T11:37:27;10.10;99.90
20528;DHT22;23612;50.894;10.700;2022-12-29T11:40:03;10.00;99.90
20528;DHT22;23612;50.894;10.700;2022-12-29T11:42:38;10.00;99.90
20528;DHT22;23612;50.894;10.700;2022-12-29T11:45:18;10.00;99.90
20528;DHT22;23612;50.894;10.700;2022-12-29T11:47:53;9.90;99.90
20528;DHT22;23612;50.894;10.700;2022-12-29T11:50:28;9.90;99.90
20528;DHT22;23612;50.894;10.700;2022-12-29T11:53:14;9.80;99.90
20528;DHT22;23612;50.894;10.700;2022-12-29T11:55:40;9.70;99.90
20528;DHT22;23612;50.894;10.700;2022-12-29T11:58:16;9.70;99.90
20528;DHT22;23612;50.894;10.700;2022-12-29T12:00:42;9.80;99.90
20528;DHT22;23612;50.894;10.700;2022-12-29T12:03:24;9.80;99.90
20528;DHT22;23612;50.894;10.700;2022-12-29T12:05:52;9.70;99.90
20528;DHT22;23612;50.894;10.700;2022-12-29T12:08:37;9.70;99.90
20528;DHT22;23612;50.894;10.700;2022-12-29T12:11:12;9.70;99.90
20528;DHT22;23612;50.894;10.700;2022-12-29T12:13:47;9.70;99.90
20528;DHT22;23612;50.894;10.700;2022-12-29T12:16:22;9.70;99.90
20528;DHT22;23612;50.894;10.700;2022-12-29T12:19:03;9.60;99.90
20528;DHT22;23612;50.894;10.700;2022-12-29T12:21:38;9.60;99.90
20528;DHT22;23612;50.894;10.700;2022-12-29T12:24:29;9.60;99.90
20528;DHT22;23612;50.894;10.700;2022-12-29T12:29:57;9.70;99.90
20528;DHT22;23612;50.894;10.700;2022-12-29T12:32:55;9.80;99.90
20528;DHT22;23612;50.894;10.700;2022-12-29T12:38:38;9.90;99.90
20528;DHT22;23612;50.894;10.700;2022-12-29T12:41:21;10.10;99.90
20528;DHT22;23612;50.894;10.700;2022-12-29T12:44:05;10.30;99.90
20528;DHT22;23612;50.894;10.700;2022-12-29T13:00:25;11.80;99.90
20528;DHT22;23612;50.894;10.700;2022-12-29T13:03:13;12.80;99.90
20528;DHT22;23612;50.894;10.700;2022-12-29T13:06:01;13.80;99.90
20528;DHT22;23612;50.894;10.700;2022-12-29T13:12:12;14.70;99.90
20528;DHT22;23612;50.894;10.700;2022-12-29T13:19:53;12.70;99.90
20528;DHT22;23612;50.894;10.700;2022-12-29T13:23:28;12.10;99.90
20528;DHT22;23612;50.894;10.700;2022-12-29T13:25:51;11.60;99.90
20528;DHT22;23612;50.894;10.700;2022-12-29T13:28:22;11.10;99.90
20528;DHT22;23612;50.894;10.700;2022-12-29T13:38:39;11.20;99.90
20528;DHT22;23612;50.894;10.700;2022-12-29T13:41:08;11.20;99.90
20528;DHT22;23612;50.894;10.700;2022-12-29T13:43:39;11.30;99.90
20528;DHT22;23612;50.894;10.700;2022-12-29T13:46:10;11.40;99.90
20528;DHT22;23612;50.894;10.700;2022-12-29T13:49:07;11.50;99.90
20528;DHT22;23612;50.894;10.700;2022-12-29T13:51:37;11.60;99.90
20528;DHT22;23612;50.894;10.700;2022-12-29T13:56:49;11.70;99.90
20528;DHT22;23612;50.894;10.700;2022-12-29T14:02:41;11.70;99.90
20528;DHT22;23612;50.894;10.700;2022-12-29T14:07:46;11.50;99.90
20528;DHT22;23612;50.894;10.700;2022-12-29T14:10:32;11.40;99.90
20528;DHT22;23612;50.894;10.700;2022-12-29T14:13:14;11.00;99.90
20528;DHT22;23612;50.894;10.700;2022-12-29T14:15:41;10.80;99.90
20528;DHT22;23612;50.894;10.700;2022-12-29T14:20:46;10.50;99.90
20528;DHT22;23612;50.894;10.700;2022-12-29T14:28:45;9.90;99.90
20528;DHT22;23612;50.894;10.700;2022-12-29T14:34:27;9.70;99.90
20528;DHT22;23612;50.894;10.700;2022-12-29T14:36:37;9.60;99.90
20528;DHT22;23612;50.894;10.700;2022-12-29T14:39:26;9.50;99.90
20528;DHT22;23612;50.894;10.700;2022-12-29T14:42:00;9.50;99.90
20528;DHT22;23612;50.894;10.700;2022-12-29T14:44:26;9.50;99.90
20528;DHT22;23612;50.894;10.700;2022-12-29T14:49:24;9.40;99.90
20528;DHT22;23612;50.894;10.700;2022-12-29T14:52:26;9.40;99.90
20528;DHT22;23612;50.894;10.700;2022-12-29T14:54:56;9.30;99.90
20528;DHT22;23612;50.894;10.700;2022-12-29T14:57:35;9.30;99.90
20528;DHT22;23612;50.894;10.700;2022-12-29T15:02:40;9.20;99.90
20528;DHT22;23612;50.894;10.700;2022-12-29T15:05:35;9.20;99.90
20528;DHT22;23612;50.894;10.700;2022-12-29T15:08:02;9.20;99.90
20528;DHT22;23612;50.894;10.700;2022-12-29T15:10:36;9.20;99.90
20528;DHT22;23612;50.894;10.700;2022-12-29T15:13:04;9.20;99.90
20528;DHT22;23612;50.894;10.700;2022-12-29T15:15:37;9.20;99.90
20528;DHT22;23612;50.894;10.700;2022-12-29T15:18:14;9.10;99.90
20528;DHT22;23612;50.894;10.700;2022-12-29T15:20:50;9.10;99.90
20528;DHT22;23612;50.894;10.700;2022-12-29T15:23:16;9.10;99.90
20528;DHT22;23612;50.894;10.700;2022-12-29T15:25:55;9.10;99.90
20528;DHT22;23612;50.894;10.700;2022-12-29T15:28:21;9.10;99.90
20528;DHT22;23612;50.894;10.700;2022-12-29T15:31:03;9.00;99.90
20528;DHT22;23612;50.894;10.700;2022-12-29T15:33:29;9.00;99.90
20528;DHT22;23612;50.894;10.700;2022-12-29T15:35:56;9.00;99.90
20528;DHT22;23612;50.894;10.700;2022-12-29T15:38:24;8.90;99.90
20528;DHT22;23612;50.894;10.700;2022-12-29T15:41:00;8.80;99.90
20528;DHT22;23612;50.894;10.700;2022-12-29T15:43:50;8.90;99.90
20528;DHT22;23612;50.894;10.700;2022-12-29T15:46:16;8.90;99.90
20528;DHT22;23612;50.894;10.700;2022-12-29T15:48:42;8.80;99.90
20528;DHT22;23612;50.894;10.700;2022-12-29T15:51:20;8.80;99.90
20528;DHT22;23612;50.894;10.700;2022-12-29T15:53:50;8.80;99.90
20528;DHT22;23612;50.894;10.700;2022-12-29T15:56:16;8.80;99.90
20528;DHT22;23612;50.894;10.700;2022-12-29T15:58:46;8.70;99.90
20528;DHT22;23612;50.894;10.700;2022-12-29T16:01:40;8.70;99.90
20528;DHT22;23612;50.894;10.700;2022-12-29T16:04:08;8.70;99.90
20528;DHT22;23612;50.894;10.700;2022-12-29T16:06:36;8.70;99.90
20528;DHT22;23612;50.894;10.700;2022-12-29T16:09:16;8.60;99.90
20528;DHT22;23612;50.894;10.700;2022-12-29T16:11:49;8.60;99.90
20528;DHT22;23612;50.894;10.700;2022-12-29T16:14:32;8.50;99.90
20528;DHT22;23612;50.894;10.700;2022-12-29T16:17:02;8.50;99.90
20528;DHT22;23612;50.894;10.700;2022-12-29T16:19:34;8.50;99.90
20528;DHT22;23612;50.894;10.700;2022-12-29T16:22:02;8.50;99.90
20528;DHT22;23612;50.894;10.700;2022-12-29T16:24:31;8.50;99.90
20528;DHT22;23612;50.894;10.700;2022-12-29T16:27:09;8.40;99.90
20528;DHT22;23612;50.894;10.700;2022-12-29T16:29:39;8.40;99.90
20528;DHT22;23612;50.894;10.700;2022-12-29T16:32:24;8.40;99.90
20528;DHT22;23612;50.894;10.700;2022-12-29T16:35:13;8.30;99.90
20528;DHT22;23612;50.894;10.700;2022-12-29T16:37:41;8.30;99.90
20528;DHT22;23612;50.894;10.700;2022-12-29T16:40:27;8.10;99.90
20528;DHT22;23612;50.894;10.700;2022-12-29T16:43:19;8.10;99.90
20528;DHT22;23612;50.894;10.700;2022-12-29T16:50:41;8.30;99.90
20528;DHT22;23612;50.894;10.700;2022-12-29T16:53:24;8.30;99.90
20528;DHT22;23612;50.894;10.700;2022-12-29T16:55:52;8.30;99.90
20528;DHT22;23612;50.894;10.700;2022-12-29T16:58:22;8.30;99.90
20528;DHT22;23612;50.894;10.700;2022-12-29T17:00:48;8.40;99.90
20528;DHT22;23612;50.894;10.700;2022-12-29T17:03:15;8.40;99.90
20528;DHT22;23612;50.894;10.700;2022-12-29T17:05:41;8.50;99.90
20528;DHT22;23612;50.894;10.700;2022-12-29T17:08:26;8.50;99.90
20528;DHT22;23612;50.894;10.700;2022-12-29T17:10:54;8.60;99.90
20528;DHT22;23612;50.894;10.700;2022-12-29T17:13:39;8.60;99.90
20528;DHT22;23612;50.894;10.700;2022-12-29T17:16:06;8.60;99.90
20528;DHT22;23612;50.894;10.700;2022-12-29T17:18:33;8.70;99.90
20528;DHT22;23612;50.894;10.700;2022-12-29T17:20:58;8.70;99.90
20528;DHT22;23612;50.894;10.700;2022-12-29T17:23:24;8.70;99.90
20528;DHT22;23612;50.894;10.700;2022-12-29T17:25:50;8.80;99.90
20528;DHT22;23612;50.894;10.700;2022-12-29T17:28:21;8.70;99.90
20528;DHT22;23612;50.894;10.700;2022-12-29T17:30:48;8.70;99.90
20528;DHT22;23612;50.894;10.700;2022-12-29T17:33:16;8.70;99.90